createdAt,value
2022-10-09T00:01:31.174Z,26.00
2022-10-09T00:03:59.600Z,30.17
2022-10-09T00:06:30.791Z,25.27
2022-10-09T00:09:01.908Z,33.08
2022-10-09T00:11:31.864Z,29.23
2022-10-09T00:14:00.881Z,24.55
2022-10-09T00:16:29.643Z,26.50
2022-10-09T00:18:58.156Z,25.60
2022-10-09T00:21:31.978Z,25.35
2022-10-09T00:24:01.873Z,27.98
2022-10-09T00:26:30.132Z,28.35
2022-10-09T00:28:58.904Z,32.55
2022-10-09T00:31:26.601Z,25.05
2022-10-09T00:33:54.051Z,29.50
2022-10-09T00:36:25.794Z,29.40
2022-10-09T00:38:54.933Z,25.92
2022-10-09T00:41:26.407Z,29.90
2022-10-09T00:43:59.957Z,29.23
2022-10-09T00:46:33.694Z,24.45
2022-10-09T00:49:13.471Z,36.67
2022-10-09T00:51:44.880Z,27.95
2022-10-09T00:54:16.376Z,29.65
2022-10-09T00:56:44.192Z,32.40
2022-10-09T00:59:12.665Z,31.27
2022-10-09T01:01:41.769Z,30.05
2022-10-09T01:04:09.741Z,30.90
2022-10-09T01:06:43.173Z,35.80
2022-10-09T01:09:18.421Z,31.25
2022-10-09T01:12:09.253Z,38.63
2022-10-09T01:14:50.531Z,28.07
2022-10-09T01:17:29.443Z,29.00
2022-10-09T01:20:03.208Z,26.48
2022-10-09T01:23:18.028Z,37.67
2022-10-09T01:26:20.580Z,32.67
2022-10-09T01:28:56.721Z,30.38
2022-10-09T01:31:27.818Z,39.30
2022-10-09T01:33:55.564Z,27.17
2022-10-09T01:36:24.624Z,29.15
2022-10-09T01:38:53.752Z,25.63
2022-10-09T01:41:21.675Z,27.15
2022-10-09T01:43:49.197Z,26.02
2022-10-09T01:46:28.814Z,25.45
2022-10-09T01:49:29.116Z,32.65
2022-10-09T01:52:23.551Z,29.88
2022-10-09T01:55:08.793Z,31.90
2022-10-09T01:57:56.514Z,28.02
2022-10-09T02:00:24.706Z,25.40
2022-10-09T02:02:54.016Z,30.77
2022-10-09T02:05:26.113Z,33.93
2022-10-09T02:07:54.801Z,31.77
2022-10-09T02:10:25.231Z,30.43
2022-10-09T02:12:57.848Z,32.50
2022-10-09T02:15:32.980Z,30.75
2022-10-09T02:18:08.501Z,30.48
2022-10-09T02:20:39.663Z,29.52
2022-10-09T02:23:09.298Z,38.00
2022-10-09T02:25:37.754Z,29.67
2022-10-09T02:28:06.057Z,26.67
2022-10-09T02:30:48.197Z,28.08
2022-10-09T02:33:15.771Z,28.88
2022-10-09T02:35:43.884Z,29.27
2022-10-09T02:38:11.481Z,24.42
2022-10-09T02:40:38.989Z,36.47
2022-10-09T02:43:06.497Z,30.52
2022-10-09T02:45:34.838Z,38.53
2022-10-09T02:48:02.314Z,40.35
2022-10-09T02:50:29.845Z,33.05
2022-10-09T02:52:57.403Z,31.70
2022-10-09T02:55:24.877Z,29.13
2022-10-09T02:57:52.869Z,26.73
2022-10-09T03:00:20.395Z,27.00
2022-10-09T03:02:48.158Z,35.65
2022-10-09T03:05:15.965Z,31.23
2022-10-09T03:07:51.090Z,32.22
2022-10-09T03:10:20.617Z,30.83
2022-10-09T03:12:48.949Z,28.02
2022-10-09T03:15:16.817Z,28.73
2022-10-09T03:17:45.058Z,26.67
2022-10-09T03:20:13.130Z,36.28
2022-10-09T03:22:41.247Z,32.05
2022-10-09T03:25:09.440Z,29.93
2022-10-09T03:27:37.559Z,29.33
2022-10-09T03:30:06.361Z,29.38
2022-10-09T03:32:34.050Z,35.10
2022-10-09T03:35:02.174Z,27.42
2022-10-09T03:37:29.655Z,28.27
2022-10-09T03:39:57.436Z,26.20
2022-10-09T03:42:25.294Z,29.13
2022-10-09T03:44:53.662Z,27.02
2022-10-09T03:47:21.227Z,26.15
2022-10-09T03:49:48.944Z,24.40
2022-10-09T03:52:16.716Z,30.77
2022-10-09T03:54:44.187Z,29.25
2022-10-09T03:57:11.693Z,33.33
2022-10-09T03:59:39.303Z,24.40
2022-10-09T04:02:07.554Z,30.05
2022-10-09T04:04:35.052Z,28.23
2022-10-09T04:07:02.562Z,26.50
2022-10-09T04:09:30.075Z,25.23
2022-10-09T04:11:58.436Z,32.67
2022-10-09T04:14:25.973Z,28.73
2022-10-09T04:16:54.020Z,26.73
2022-10-09T04:19:21.488Z,25.83
2022-10-09T04:21:49.920Z,31.77
2022-10-09T04:24:18.126Z,25.67
2022-10-09T04:26:45.657Z,27.45
2022-10-09T04:29:13.934Z,29.52
2022-10-09T04:31:41.643Z,25.45
2022-10-09T04:34:09.287Z,28.23
2022-10-09T04:36:37.621Z,26.33
2022-10-09T04:39:05.747Z,24.40
2022-10-09T04:41:37.986Z,24.85
2022-10-09T04:44:06.280Z,29.88
2022-10-09T04:46:33.923Z,30.00
2022-10-09T04:49:01.468Z,25.98
2022-10-09T04:51:29.666Z,31.58
2022-10-09T04:54:00.616Z,28.35
2022-10-09T04:56:28.902Z,28.30
2022-10-09T04:58:56.916Z,27.80
2022-10-09T05:01:27.300Z,29.58
2022-10-09T05:03:56.225Z,25.53
2022-10-09T05:06:25.069Z,28.90
2022-10-09T05:08:53.377Z,28.83
2022-10-09T05:11:23.687Z,29.27
2022-10-09T05:13:53.893Z,25.80
2022-10-09T05:16:27.717Z,25.35
2022-10-09T05:18:58.196Z,28.03
2022-10-09T05:21:27.925Z,28.90
2022-10-09T05:23:56.504Z,28.17
2022-10-09T05:26:25.840Z,27.70
2022-10-09T05:28:53.541Z,30.92
2022-10-09T05:31:26.604Z,29.67
2022-10-09T05:33:56.011Z,29.85
2022-10-09T05:36:23.752Z,34.22
2022-10-09T05:38:52.077Z,33.03
2022-10-09T05:41:20.160Z,34.40
2022-10-09T05:43:49.413Z,34.22
2022-10-09T05:46:25.533Z,42.03
2022-10-09T05:48:55.911Z,32.05
2022-10-09T05:51:28.931Z,34.47
2022-10-09T05:53:57.212Z,30.98
2022-10-09T05:56:30.416Z,31.40
2022-10-09T05:59:03.884Z,40.70
2022-10-09T06:01:41.269Z,38.10
2022-10-09T06:04:13.442Z,37.53
2022-10-09T06:06:41.557Z,42.00
2022-10-09T06:09:11.087Z,37.83
2022-10-09T06:11:40.537Z,38.55
2022-10-09T06:14:10.957Z,37.83
2022-10-09T06:16:41.449Z,45.50
2022-10-09T06:19:12.194Z,31.70
2022-10-09T06:21:39.899Z,40.10
2022-10-09T06:24:08.026Z,38.47
2022-10-09T06:26:35.568Z,37.45
2022-10-09T06:29:03.558Z,38.15
2022-10-09T06:31:32.916Z,38.38
2022-10-09T06:34:01.964Z,40.05
2022-10-09T06:36:33.414Z,38.90
2022-10-09T06:39:03.699Z,40.78
2022-10-09T06:41:31.769Z,39.72
2022-10-09T06:44:01.968Z,38.35
2022-10-09T06:46:35.707Z,40.72
2022-10-09T06:49:04.957Z,52.03
2022-10-09T06:51:33.807Z,41.17
2022-10-09T06:54:04.494Z,38.00
2022-10-09T06:56:32.475Z,36.35
2022-10-09T06:59:02.526Z,38.42
2022-10-09T07:01:34.686Z,40.13
2022-10-09T07:04:09.875Z,37.45
2022-10-09T07:06:39.956Z,35.63
2022-10-09T07:09:11.295Z,33.15
2022-10-09T07:11:44.926Z,37.70
2022-10-09T07:14:14.306Z,31.53
2022-10-09T07:16:44.790Z,31.80
2022-10-09T07:19:13.977Z,29.70
2022-10-09T07:21:44.229Z,32.38
2022-10-09T07:24:13.404Z,32.67
2022-10-09T07:26:44.181Z,29.50
2022-10-09T07:29:14.551Z,30.83
2022-10-09T07:31:43.199Z,27.92
2022-10-09T07:34:11.483Z,26.80
2022-10-09T07:36:39.618Z,25.55
2022-10-09T07:39:07.604Z,24.65
2022-10-09T07:41:35.462Z,25.25
2022-10-09T07:44:03.228Z,29.23
2022-10-09T07:46:34.028Z,25.73
2022-10-09T07:49:03.111Z,25.48
2022-10-09T07:51:32.790Z,23.05
2022-10-09T07:54:02.150Z,19.67
2022-10-09T07:56:35.814Z,20.15
2022-10-09T08:01:36.151Z,22.92
2022-10-09T08:04:04.263Z,17.50
2022-10-09T08:06:32.686Z,20.10
2022-10-09T08:09:02.525Z,18.02
2022-10-09T08:11:31.107Z,15.75
2022-10-09T08:13:59.267Z,18.08
2022-10-09T08:16:28.199Z,12.80
2022-10-09T08:18:58.471Z,11.05
2022-10-09T08:21:28.672Z,19.95
2022-10-09T08:23:58.063Z,13.02
2022-10-09T08:26:30.258Z,11.55
2022-10-09T08:29:05.592Z,14.55
2022-10-09T08:31:33.205Z,9.48
2022-10-09T08:34:03.387Z,9.48
2022-10-09T08:36:31.547Z,9.48
2022-10-09T08:38:59.148Z,12.65
2022-10-09T08:41:29.819Z,12.73
2022-10-09T08:44:10.434Z,11.05
2022-10-09T08:46:46.975Z,6.78
2022-10-09T08:49:37.700Z,9.02
2022-10-09T08:52:36.161Z,12.27
2022-10-09T08:55:21.541Z,8.07
2022-10-09T08:57:52.165Z,13.30
2022-10-09T09:00:22.654Z,13.70
2022-10-09T09:03:09.201Z,9.27
2022-10-09T09:05:43.039Z,9.13
2022-10-09T09:08:44.280Z,13.55
2022-10-09T09:11:36.739Z,9.45
2022-10-09T09:14:14.383Z,8.43
2022-10-09T09:17:29.313Z,12.70
2022-10-09T09:20:03.707Z,7.13
2022-10-09T09:22:32.669Z,8.80
2022-10-09T09:25:17.887Z,8.73
2022-10-09T09:27:46.263Z,10.15
2022-10-09T09:30:51.977Z,11.15
2022-10-09T09:33:26.028Z,9.55
2022-10-09T09:36:09.123Z,15.85
2022-10-09T09:38:54.213Z,10.07
2022-10-09T09:41:25.725Z,7.15
2022-10-09T09:43:53.257Z,8.15
2022-10-09T09:46:24.428Z,8.15
2022-10-09T09:48:52.128Z,12.88
2022-10-09T09:51:28.674Z,6.45
2022-10-09T09:54:05.239Z,5.63
2022-10-09T09:57:10.449Z,6.43
2022-10-09T09:59:36.673Z,8.13
2022-10-09T10:02:11.792Z,9.15
2022-10-09T10:04:54.140Z,11.45
2022-10-09T10:07:36.487Z,5.63
2022-10-09T10:10:10.137Z,13.52
2022-10-09T10:12:59.390Z,10.15
2022-10-09T10:15:29.636Z,7.38
2022-10-09T10:18:17.547Z,7.88
2022-10-09T10:20:49.766Z,9.10
2022-10-09T10:23:40.908Z,6.53
2022-10-09T10:26:25.919Z,6.97
2022-10-09T10:29:34.759Z,11.27
2022-10-09T10:32:17.451Z,9.75
2022-10-09T10:34:58.007Z,9.07
2022-10-09T10:37:31.368Z,9.88
2022-10-09T10:42:44.917Z,12.02
2022-10-09T10:45:26.367Z,15.32
2022-10-09T10:47:58.478Z,9.55
2022-10-09T10:50:31.147Z,11.35
2022-10-09T10:53:14.115Z,7.15
2022-10-09T10:56:09.181Z,7.35
2022-10-09T10:59:07.718Z,8.40
2022-10-09T11:01:57.922Z,7.25
2022-10-09T11:05:01.064Z,6.78
2022-10-09T11:08:03.573Z,8.00
2022-10-09T11:10:54.549Z,10.27
2022-10-09T11:13:56.220Z,10.85
2022-10-09T11:16:35.769Z,10.35
2022-10-09T11:19:20.789Z,29.63
2022-10-09T11:21:56.965Z,9.07
2022-10-09T11:24:59.636Z,10.55
2022-10-09T11:27:32.287Z,5.03
2022-10-09T11:30:15.639Z,7.05
2022-10-09T11:32:45.985Z,4.32
2022-10-09T11:35:22.252Z,6.97
2022-10-09T11:38:04.836Z,6.50
2022-10-09T11:40:38.260Z,4.03
2022-10-09T11:43:27.317Z,5.45
2022-10-09T12:14:29.681Z,7.40
2022-10-09T12:16:59.100Z,7.78
2022-10-09T12:19:38.265Z,6.68
2022-10-09T12:22:23.476Z,6.25
2022-10-09T12:24:55.232Z,5.35
2022-10-09T12:27:28.654Z,9.18
2022-10-09T12:29:59.734Z,6.38
2022-10-09T12:32:31.884Z,8.15
2022-10-09T12:35:04.710Z,9.07
2022-10-09T12:37:35.750Z,9.43
2022-10-09T12:40:31.681Z,7.20
2022-10-09T12:43:06.450Z,6.97
2022-10-09T12:45:34.002Z,7.13
2022-10-09T12:48:10.513Z,7.45
2022-10-09T12:50:38.796Z,5.57
2022-10-09T12:53:15.358Z,8.38
2022-10-09T12:55:50.161Z,5.65
2022-10-09T12:58:26.714Z,7.32
2022-10-09T13:01:01.617Z,5.90
2022-10-09T13:03:43.637Z,12.35
2022-10-09T13:06:20.959Z,6.63
2022-10-09T13:09:04.250Z,4.95
2022-10-09T13:11:43.091Z,7.25
2022-10-09T13:14:52.500Z,7.85
2022-10-09T13:17:29.360Z,8.60
2022-10-09T13:20:00.362Z,7.22
2022-10-09T13:22:35.048Z,7.38
2022-10-09T13:25:05.021Z,6.32
2022-10-09T13:27:37.461Z,7.80
2022-10-09T13:30:06.583Z,8.00
2022-10-09T13:32:34.102Z,6.78
2022-10-09T13:35:01.685Z,5.68
2022-10-09T13:37:29.720Z,5.70
2022-10-09T13:39:59.210Z,8.00
2022-10-09T13:42:31.448Z,7.32
2022-10-09T13:44:59.027Z,8.90
2022-10-09T13:47:26.918Z,8.27
2022-10-09T13:49:55.091Z,6.65
2022-10-09T13:52:22.625Z,8.18
2022-10-09T13:54:50.687Z,7.00
2022-10-09T13:57:18.177Z,6.65
2022-10-09T13:59:46.802Z,11.27
2022-10-09T14:02:14.879Z,13.10
2022-10-09T14:04:42.701Z,6.53
2022-10-09T14:07:10.813Z,8.02
2022-10-09T14:09:38.519Z,14.98
2022-10-09T14:12:06.521Z,6.80
2022-10-09T14:14:34.289Z,10.73
2022-10-09T14:17:01.865Z,6.88
2022-10-09T14:19:29.615Z,10.55
2022-10-09T14:21:58.584Z,5.10
2022-10-09T14:24:26.655Z,5.57
2022-10-09T14:26:55.204Z,6.82
2022-10-09T14:29:22.895Z,9.50
2022-10-09T14:31:53.951Z,9.82
2022-10-09T14:34:21.982Z,6.18
2022-10-09T14:36:50.330Z,13.30
2022-10-09T14:39:17.955Z,10.07
2022-10-09T14:41:46.001Z,7.18
2022-10-09T14:44:13.738Z,7.70
2022-10-09T14:46:41.444Z,15.15
2022-10-09T14:49:10.803Z,7.97
2022-10-09T14:51:40.512Z,10.93
2022-10-09T14:54:09.551Z,6.47
2022-10-09T14:56:37.756Z,7.40
2022-10-09T14:59:06.194Z,8.02
2022-10-09T15:01:34.920Z,6.68
2022-10-09T15:04:04.631Z,9.07
2022-10-09T15:06:34.133Z,10.65
2022-10-09T15:09:05.639Z,8.30
2022-10-09T15:11:35.345Z,7.55
2022-10-09T15:14:04.680Z,7.30
2022-10-09T15:16:32.714Z,11.13
2022-10-09T15:19:00.674Z,7.05
2022-10-09T15:21:33.147Z,10.05
2022-10-09T15:24:02.900Z,7.05
2022-10-09T15:26:36.303Z,6.93
2022-10-09T15:29:07.013Z,9.60
2022-10-09T15:31:39.927Z,8.25
2022-10-09T15:34:09.004Z,20.35
2022-10-09T15:36:40.020Z,9.15
2022-10-09T15:39:09.095Z,6.95
2022-10-09T15:41:39.514Z,11.73
2022-10-09T15:44:19.061Z,15.43
2022-10-09T15:46:48.139Z,6.10
2022-10-09T15:49:15.705Z,10.05
2022-10-09T15:51:43.263Z,12.88
2022-10-09T15:54:11.974Z,9.25
2022-10-09T15:56:41.458Z,8.65
2022-10-09T15:59:12.710Z,10.52
2022-10-09T16:01:40.834Z,11.95
2022-10-09T16:04:10.884Z,12.57
2022-10-09T16:06:38.837Z,9.80
2022-10-09T16:09:06.517Z,9.23
2022-10-09T16:11:34.774Z,11.15
2022-10-09T16:14:02.380Z,5.95
2022-10-09T16:16:30.476Z,9.80
2022-10-09T16:18:58.156Z,11.70
2022-10-09T16:21:28.549Z,8.63
2022-10-09T16:23:59.091Z,9.55
2022-10-09T16:26:29.464Z,8.02
2022-10-09T16:28:59.167Z,7.25
2022-10-09T16:31:34.954Z,10.95
2022-10-09T16:34:05.281Z,9.05
2022-10-09T16:36:33.480Z,9.68
2022-10-09T16:39:02.007Z,14.73
2022-10-09T16:41:29.606Z,12.10
2022-10-09T16:44:00.216Z,7.50
2022-10-09T16:46:31.871Z,12.05
2022-10-09T16:49:02.838Z,11.23
2022-10-09T16:51:34.982Z,7.90
2022-10-09T16:54:05.426Z,13.32
2022-10-09T16:56:36.945Z,9.77
2022-10-09T16:59:11.009Z,13.43
2022-10-09T17:01:43.650Z,11.57
2022-10-09T17:04:12.952Z,17.05
2022-10-09T17:06:42.103Z,11.63
2022-10-09T17:09:13.923Z,10.25
2022-10-09T17:11:43.405Z,14.73
2022-10-09T17:14:12.053Z,14.20
2022-10-09T17:16:41.264Z,13.63
2022-10-09T17:19:09.621Z,15.68
2022-10-09T17:21:37.571Z,13.30
2022-10-09T17:24:06.194Z,11.30
2022-10-09T17:26:35.167Z,11.10
2022-10-09T17:29:04.750Z,14.68
2022-10-09T17:31:32.442Z,14.57
2022-10-09T17:34:02.207Z,9.38
2022-10-09T17:36:32.418Z,14.40
2022-10-09T17:39:00.825Z,11.88
2022-10-09T17:41:29.328Z,10.60
2022-10-09T17:43:57.923Z,15.27
2022-10-09T17:46:28.374Z,11.75
2022-10-09T17:48:57.070Z,15.68
2022-10-09T17:51:28.602Z,15.38
2022-10-09T17:53:59.287Z,12.35
2022-10-09T17:56:28.076Z,9.73
2022-10-09T17:58:56.148Z,12.45
2022-10-09T18:01:24.479Z,9.07
2022-10-09T18:03:52.631Z,10.20
2022-10-09T18:06:24.977Z,15.38
2022-10-09T18:08:55.500Z,13.50
2022-10-09T18:11:25.498Z,11.32
2022-10-09T18:13:54.473Z,10.43
2022-10-09T18:16:35.429Z,14.77
2022-10-09T18:19:13.029Z,11.68
2022-10-09T18:21:44.276Z,16.33
2022-10-09T18:24:12.775Z,12.45
2022-10-09T18:26:42.260Z,18.13
2022-10-09T18:29:09.990Z,26.60
2022-10-09T18:31:38.612Z,14.80
2022-10-09T18:34:06.736Z,11.73
2022-10-09T18:36:35.007Z,17.05
2022-10-09T18:39:04.768Z,11.15
2022-10-09T18:41:32.292Z,35.28
2022-10-09T18:44:01.830Z,13.45
2022-10-09T18:46:38.255Z,17.90
2022-10-09T18:49:09.570Z,21.60
2022-10-09T18:51:41.647Z,12.27
2022-10-09T18:54:14.430Z,21.02
2022-10-09T18:56:45.230Z,14.32
2022-10-09T18:59:17.240Z,9.75
2022-10-09T19:01:44.843Z,15.48
2022-10-09T19:04:13.028Z,12.75
2022-10-09T19:06:40.742Z,13.18
2022-10-09T19:09:08.665Z,11.00
2022-10-09T19:11:36.628Z,15.40
2022-10-09T19:14:04.153Z,22.58
2022-10-09T19:16:33.895Z,10.13
2022-10-09T19:19:01.613Z,11.70
2022-10-09T19:21:29.839Z,13.27
2022-10-09T19:24:03.369Z,21.30
2022-10-09T19:26:30.890Z,15.15
2022-10-09T19:28:58.960Z,15.57
2022-10-09T19:31:26.617Z,13.70
2022-10-09T19:33:54.162Z,28.83
2022-10-09T19:36:21.708Z,13.07
2022-10-09T19:38:49.234Z,13.68
2022-10-09T19:41:16.779Z,23.92
2022-10-09T19:43:44.811Z,100.55
2022-10-09T19:46:17.334Z,58.75
2022-10-09T19:48:46.168Z,26.67
2022-10-09T19:51:17.299Z,28.13
2022-10-09T19:53:45.254Z,22.35
2022-10-09T19:56:19.773Z,18.80
2022-10-09T19:58:48.931Z,14.90
2022-10-09T20:01:19.847Z,13.30
2022-10-09T20:03:48.908Z,40.75
2022-10-09T20:06:16.393Z,16.70
2022-10-09T20:08:45.444Z,13.00
2022-10-09T20:11:13.971Z,16.85
2022-10-09T20:13:43.063Z,15.30
2022-10-09T20:16:15.148Z,14.93
2022-10-09T20:18:43.744Z,13.65
2022-10-09T20:21:14.061Z,9.85
2022-10-09T20:23:44.352Z,13.52
2022-10-09T20:26:17.302Z,11.07
2022-10-09T20:28:46.955Z,13.10
2022-10-09T20:31:19.567Z,11.27
2022-10-09T20:33:49.005Z,9.20
2022-10-09T20:36:37.466Z,9.65
2022-10-09T20:39:11.302Z,10.20
2022-10-09T20:41:39.778Z,10.85
2022-10-09T20:44:07.982Z,8.88
2022-10-09T20:46:37.577Z,8.50
2022-10-09T20:49:08.681Z,12.77
2022-10-09T20:51:37.552Z,8.40
2022-10-09T20:54:06.499Z,9.02
2022-10-09T20:56:34.816Z,8.85
2022-10-09T20:59:03.691Z,8.55
2022-10-09T21:01:31.797Z,9.82
2022-10-09T21:03:59.560Z,11.25
2022-10-09T21:06:27.185Z,8.98
2022-10-09T21:08:55.292Z,8.52
2022-10-09T21:11:24.091Z,13.80
2022-10-09T21:13:51.903Z,9.95
2022-10-09T21:16:22.084Z,9.32
2022-10-09T21:18:57.502Z,9.90
2022-10-09T21:21:26.538Z,9.70
2022-10-09T21:23:56.123Z,11.07
2022-10-09T21:26:24.020Z,9.77
2022-10-09T21:28:56.753Z,122.60
2022-10-09T21:31:28.649Z,10.90
2022-10-09T21:33:58.087Z,9.98
2022-10-09T21:37:02.169Z,15.52
2022-10-09T21:39:32.463Z,8.55
2022-10-09T21:41:59.956Z,11.30
2022-10-09T21:44:28.020Z,7.22
2022-10-09T21:46:56.457Z,10.98
2022-10-09T21:49:27.341Z,8.43
2022-10-09T21:51:56.062Z,11.77
2022-10-09T21:54:24.149Z,6.13
2022-10-09T21:56:52.110Z,11.45
2022-10-09T21:59:19.657Z,12.00
2022-10-09T22:01:47.370Z,8.25
2022-10-09T22:04:15.091Z,11.02
2022-10-09T22:06:43.478Z,7.93
2022-10-09T22:09:12.217Z,11.13
2022-10-09T22:11:39.811Z,8.55
2022-10-09T22:14:07.570Z,12.82
2022-10-09T22:16:35.113Z,10.70
2022-10-09T22:19:03.093Z,5.63
2022-10-09T22:21:31.322Z,8.68
2022-10-09T22:24:00.502Z,11.50
2022-10-09T22:26:28.218Z,5.22
2022-10-09T22:28:55.755Z,6.50
2022-10-09T22:31:25.615Z,6.82
2022-10-09T22:34:00.943Z,6.97
2022-10-09T22:36:31.675Z,6.47
2022-10-09T22:39:02.089Z,7.78
2022-10-09T22:41:30.798Z,5.53
2022-10-09T22:44:00.153Z,7.68
2022-10-09T22:46:34.720Z,11.50
2022-10-09T22:49:02.879Z,7.93
2022-10-09T22:51:31.595Z,6.07
2022-10-09T22:54:00.478Z,14.05
2022-10-09T22:56:38.165Z,7.68
2022-10-09T22:59:06.988Z,8.73
2022-10-09T23:01:39.725Z,8.63
2022-10-09T23:04:10.750Z,8.45
2022-10-09T23:06:38.806Z,13.25
2022-10-09T23:09:08.738Z,8.80
2022-10-09T23:11:36.976Z,10.65
2022-10-09T23:14:05.430Z,14.30
2022-10-09T23:16:34.064Z,16.05
2022-10-09T23:19:06.751Z,10.80
2022-10-09T23:21:37.856Z,8.82
2022-10-09T23:24:06.439Z,8.98
2022-10-09T23:26:36.943Z,10.98
2022-10-09T23:29:12.518Z,42.42
2022-10-09T23:31:40.638Z,11.57
2022-10-09T23:34:08.205Z,93.90
2022-10-09T23:36:36.311Z,8.70
2022-10-09T23:39:06.163Z,7.45
2022-10-09T23:41:34.850Z,6.55
2022-10-09T23:44:02.448Z,8.15
2022-10-09T23:46:33.867Z,7.07
2022-10-09T23:49:02.013Z,19.60
2022-10-09T23:51:30.110Z,7.20
2022-10-09T23:53:58.311Z,31.20
2022-10-09T23:56:32.281Z,19.48
2022-10-09T23:59:01.764Z,7.75
